YGAH weather

Greenbah Airport
New South Wales, Australia

Public forecast

Using degrees Celsius for public forecast. Weather courtesy of forecast.io.

Closest aviation weather report (METAR) to Greenbah Airport

Closest report is Narrabri Airport, 23.4 nm (43.4 km) ESE. Retrieved 2020/07/04 17:00 UTC (1 hour ago):

YNBR 041700Z AUTO 17003KT 9999 // NCD M01/M02 Q1024

Closest aviation forecast (TAF) to Greenbah Airport

Closest forecast is Tamworth Airport, 92.9 nm (172.1 km) SE. Retrieved 2020/07/04 18:36 UTC (0 seconds ago):

TAF YSTW 041641Z 0418/0512 VRB03KT 9999 BKN020 FM050000 VRB03KT 9999 SCT030